Rechercher aéroport 
image banner adimage banner adimage banner ad
image banner ad

CET4 - Fort Simpson Island

Situé à , Canada

ICAO - CET4, IATA -

Données fournies par Airmate  

Information générale

Coordonnées: N61°52'0" W121°21'58"
Élévation : 405 feet MSL.
Variation magnétique : 21.1167° East
Voir autres Aéroports à Northwest Territories

Données opérationnelles

Special qualification required
Heure actuelle UTC:
Heure actuelle locale:
Météo à : CYFS - Fort Simpson ( 14 km )
METAR: CYFS 062300Z VRB02KT 15SM FEW160 BKN180 BKN200 M30/M33 A2981 RMK AC2AC3CI1 SLP127
TAF: TAF CYFS 061740Z 0618/0706 VRB03KT P6SM FEW120 SCT220 RMK NXT FCST BY 070000Z
Voir NOTAMs / SUP AIP / TFR affectant cet aéroport [VIEW]
Fréquences de communication: [VIEW]

Pistes:

Identifiant RWYQFULongueur (ft)Largeur (ft)SurfaceLDA (ft)
133000100GRAVE
313000100GRAVE

Coordonnées de l'aéroport

Adresse: Canada

Vue satellite de CET4